Time;durP1;ratioP1;P1;durP2;ratioP2;P2;SDS_P1;SDS_P2;PMS_P1;PMS_P2;Temp;Humidity;BMP_temperature;BMP_pressure;BME280_temperature;BME280_humidity;BME280_pressure;Samples;Min_cycle;Max_cycle;Signal;HPM_P1;HPM_P2
2022/02/22 00:01:06;;;;;;;;;;;19.10;58.60;;;;;;5040356;28;1266;-70
2022/02/22 00:03:36;;;;;;;;;;;19.10;58.60;;;;;;5050506;28;1404;-70
2022/02/22 00:06:02;;;;;;;;;;;19.10;58.60;;;;;;5036005;28;1402;-70
2022/02/22 00:08:27;;;;;;;;;;;19.10;58.60;;;;;;5034073;28;1479;-69
2022/02/22 00:10:53;;;;;;;;;;;19.00;58.60;;;;;;5035490;28;1275;-71
2022/02/22 00:13:18;;;;;;;;;;;19.00;58.60;;;;;;5035830;28;1926;-71
2022/02/22 00:15:43;;;;;;;;;;;19.00;58.70;;;;;;5036411;28;1265;-70
2022/02/22 00:18:09;;;;;;;;;;;19.00;58.70;;;;;;5034851;28;1428;-70
2022/02/22 00:20:34;;;;;;;;;;;19.00;58.70;;;;;;5035421;28;1306;-70
2022/02/22 00:23:02;;;;;;;;;;;19.00;58.80;;;;;;5035337;28;1294;-70
2022/02/22 00:25:27;;;;;;;;;;;19.00;58.80;;;;;;5034496;28;1298;-71
2022/02/22 00:27:53;;;;;;;;;;;19.00;58.80;;;;;;5036111;28;1309;-70
2022/02/22 00:30:18;;;;;;;;;;;19.00;58.80;;;;;;5035599;28;1162;-70
2022/02/22 00:32:45;;;;;;;;;;;19.00;58.80;;;;;;5051049;28;1914;-71
2022/02/22 00:35:11;;;;;;;;;;;19.00;58.90;;;;;;5034180;28;1271;-70
2022/02/22 00:37:36;;;;;;;;;;;18.90;58.80;;;;;;5051131;28;1128;-69
2022/02/22 00:40:02;;;;;;;;;;;18.90;58.80;;;;;;5034199;28;1286;-70
2022/02/22 00:42:28;;;;;;;;;;;18.90;58.90;;;;;;5036051;28;1294;-70
2022/02/22 00:44:53;;;;;;;;;;;18.90;58.90;;;;;;5034492;28;1501;-70
2022/02/22 00:47:18;;;;;;;;;;;18.90;58.90;;;;;;5035429;28;1163;-69
2022/02/22 00:49:44;;;;;;;;;;;18.90;59.00;;;;;;5017708;28;1408;-71
2022/02/22 00:52:09;;;;;;;;;;;18.90;59.00;;;;;;5035596;28;1899;-72
2022/02/22 00:54:35;;;;;;;;;;;18.90;59.00;;;;;;5035244;28;1279;-70
2022/02/22 00:57:00;;;;;;;;;;;18.90;59.00;;;;;;5035634;28;1394;-71
2022/02/22 00:59:26;;;;;;;;;;;18.90;59.00;;;;;;5035389;28;1410;-71
2022/02/22 01:01:51;;;;;;;;;;;18.90;59.00;;;;;;5023411;28;1419;-71
2022/02/22 01:04:17;;;;;;;;;;;18.90;59.10;;;;;;5035414;28;1322;-71
2022/02/22 01:06:42;;;;;;;;;;;18.90;59.10;;;;;;5035501;28;1302;-71
2022/02/22 01:09:07;;;;;;;;;;;18.90;59.10;;;;;;5033264;28;1429;-70
2022/02/22 01:11:33;;;;;;;;;;;18.80;59.10;;;;;;5033001;28;1358;-70
2022/02/22 01:13:59;;;;;;;;;;;18.80;59.10;;;;;;5034346;28;1904;-70
2022/02/22 01:16:24;;;;;;;;;;;18.80;59.10;;;;;;5034673;28;1362;-71
2022/02/22 01:18:50;;;;;;;;;;;18.80;59.10;;;;;;5031362;28;2639;-69
2022/02/22 01:21:15;;;;;;;;;;;18.80;59.10;;;;;;5048488;28;1419;-71
2022/02/22 01:23:41;;;;;;;;;;;18.80;59.20;;;;;;5034142;28;1114;-70
2022/02/22 01:26:06;;;;;;;;;;;18.80;59.20;;;;;;5033926;28;1325;-70
2022/02/22 01:28:32;;;;;;;;;;;18.80;59.20;;;;;;5032090;28;1370;-70
2022/02/22 01:30:57;;;;;;;;;;;18.80;59.20;;;;;;5033881;28;1422;-70
2022/02/22 01:33:23;;;;;;;;;;;18.80;59.20;;;;;;5038278;28;1897;-69
2022/02/22 01:35:48;;;;;;;;;;;18.80;59.20;;;;;;5031200;28;1048;-71
2022/02/22 01:38:13;;;;;;;;;;;18.80;59.30;;;;;;5033300;28;1442;-70
2022/02/22 01:40:39;;;;;;;;;;;18.80;59.30;;;;;;5033110;28;1365;-70
2022/02/22 01:43:04;;;;;;;;;;;18.80;59.30;;;;;;5033824;28;1340;-71
2022/02/22 01:45:30;;;;;;;;;;;18.80;59.30;;;;;;5033716;28;1602;-70
2022/02/22 01:47:55;;;;;;;;;;;18.80;59.30;;;;;;5031912;28;1293;-70
2022/02/22 01:50:21;;;;;;;;;;;18.80;59.30;;;;;;5032855;28;1236;-71
2022/02/22 01:52:46;;;;;;;;;;;18.80;59.30;;;;;;5038974;28;1906;-71
2022/02/22 01:55:11;;;;;;;;;;;18.80;59.40;;;;;;5029719;28;1179;-71
2022/02/22 01:57:37;;;;;;;;;;;18.80;59.40;;;;;;5039435;28;1377;-71
2022/02/22 02:00:04;;;;;;;;;;;18.70;59.30;;;;;;5028871;28;1272;-70
2022/02/22 02:02:29;;;;;;;;;;;18.80;59.40;;;;;;5073549;22;1944;-71
2022/02/22 02:04:55;;;;;;;;;;;18.70;59.40;;;;;;5045747;28;1415;-73
2022/02/22 02:07:20;;;;;;;;;;;18.70;59.40;;;;;;5053599;28;1619;-72
2022/02/22 02:09:46;;;;;;;;;;;18.70;59.40;;;;;;5054183;28;1408;-71
2022/02/22 02:12:11;;;;;;;;;;;18.70;59.40;;;;;;5053662;28;1914;-72
2022/02/22 02:14:37;;;;;;;;;;;18.70;59.40;;;;;;5053597;28;1721;-72
2022/02/22 02:17:02;;;;;;;;;;;18.70;59.40;;;;;;5053672;28;1432;-71
2022/02/22 02:19:27;;;;;;;;;;;18.70;59.40;;;;;;5055798;28;1148;-73
2022/02/22 02:21:57;;;;;;;;;;;18.70;59.50;;;;;;5053265;28;1264;-72
2022/02/22 02:24:23;;;;;;;;;;;18.70;59.50;;;;;;5042318;28;1470;-72
2022/02/22 02:26:49;;;;;;;;;;;18.70;59.50;;;;;;5042476;28;1306;-72
2022/02/22 02:29:15;;;;;;;;;;;18.70;59.50;;;;;;5038805;28;1252;-72
2022/02/22 02:31:41;;;;;;;;;;;18.70;59.50;;;;;;5037151;28;1359;-72
2022/02/22 02:34:07;;;;;;;;;;;18.70;59.50;;;;;;5028530;28;1955;-71
2022/02/22 02:36:33;;;;;;;;;;;18.70;59.50;;;;;;5039646;28;1263;-74
2022/02/22 02:38:58;;;;;;;;;;;18.60;59.50;;;;;;5039361;28;1294;-73
2022/02/22 02:41:24;;;;;;;;;;;18.60;59.50;;;;;;5039719;28;1258;-72
2022/02/22 02:43:49;;;;;;;;;;;18.60;60.20;;;;;;5039378;28;1294;-73
2022/02/22 02:46:15;;;;;;;;;;;18.60;59.60;;;;;;5039847;28;1238;-73
2022/02/22 02:48:40;;;;;;;;;;;18.60;59.50;;;;;;5047200;28;1219;-73
2022/02/22 02:51:05;;;;;;;;;;;18.60;59.50;;;;;;5041420;28;1179;-71
2022/02/22 02:53:31;;;;;;;;;;;18.60;59.50;;;;;;5039858;28;1990;-72
2022/02/22 02:55:56;;;;;;;;;;;18.70;59.60;;;;;;5043268;28;1247;-72
2022/02/22 02:58:22;;;;;;;;;;;18.60;59.50;;;;;;5042218;28;1147;-71
2022/02/22 03:00:47;;;;;;;;;;;18.70;59.70;;;;;;5038842;28;1216;-70
2022/02/22 03:03:13;;;;;;;;;;;18.60;59.60;;;;;;5043037;28;1292;-72
2022/02/22 03:05:38;;;;;;;;;;;18.60;59.60;;;;;;5039243;28;1184;-71
2022/02/22 03:08:03;;;;;;;;;;;18.60;59.70;;;;;;5044152;28;1199;-72
2022/02/22 03:10:29;;;;;;;;;;;18.60;59.70;;;;;;5039743;28;1212;-72
2022/02/22 03:12:54;;;;;;;;;;;18.60;59.60;;;;;;5040740;28;1973;-70
2022/02/22 03:15:20;;;;;;;;;;;18.60;59.70;;;;;;5038046;28;1193;-72
2022/02/22 03:17:45;;;;;;;;;;;18.60;59.70;;;;;;5038208;28;1228;-72
2022/02/22 03:20:11;;;;;;;;;;;18.60;59.70;;;;;;5036487;28;1360;-72
2022/02/22 03:22:43;;;;;;;;;;;18.60;59.70;;;;;;5041158;28;1284;-71
2022/02/22 03:25:09;;;;;;;;;;;18.60;59.70;;;;;;5039706;28;1318;-72
2022/02/22 03:27:34;;;;;;;;;;;18.60;59.70;;;;;;5039353;28;1262;-72
2022/02/22 03:29:59;;;;;;;;;;;18.60;59.70;;;;;;5043547;28;1331;-69
2022/02/22 03:32:25;;;;;;;;;;;18.60;59.80;;;;;;5041059;28;1906;-70
2022/02/22 03:34:50;;;;;;;;;;;18.60;59.80;;;;;;5040389;28;1299;-72
2022/02/22 03:37:16;;;;;;;;;;;18.60;59.80;;;;;;5045353;28;1200;-71
2022/02/22 03:39:41;;;;;;;;;;;18.60;59.80;;;;;;5043316;28;1259;-71
2022/02/22 03:42:07;;;;;;;;;;;18.60;59.80;;;;;;5043727;28;1338;-68
2022/02/22 03:44:32;;;;;;;;;;;18.60;59.80;;;;;;5044836;28;1325;-69
2022/02/22 03:46:57;;;;;;;;;;;18.60;59.80;;;;;;5043878;28;1336;-71
2022/02/22 03:49:23;;;;;;;;;;;18.60;59.80;;;;;;5044569;28;1272;-69
2022/02/22 03:51:48;;;;;;;;;;;18.50;59.70;;;;;;5044653;28;1942;-67
2022/02/22 03:54:14;;;;;;;;;;;18.50;59.80;;;;;;5044078;28;1235;-69
2022/02/22 03:56:39;;;;;;;;;;;18.50;59.70;;;;;;5046082;28;1285;-72
2022/02/22 03:59:05;;;;;;;;;;;18.50;59.70;;;;;;5043501;28;1303;-71
2022/02/22 04:01:30;;;;;;;;;;;18.50;59.80;;;;;;5040972;28;1243;-72
2022/02/22 04:03:55;;;;;;;;;;;18.50;59.80;;;;;;5042890;28;1298;-71
2022/02/22 04:06:21;;;;;;;;;;;18.50;59.80;;;;;;5043151;28;1302;-70
2022/02/22 04:08:46;;;;;;;;;;;18.50;59.80;;;;;;5043954;28;1227;-70
2022/02/22 04:11:12;;;;;;;;;;;18.50;59.80;;;;;;5043544;28;1152;-71
2022/02/22 04:13:38;;;;;;;;;;;18.50;59.80;;;;;;5044820;28;1977;-71
2022/02/22 04:16:03;;;;;;;;;;;18.50;59.80;;;;;;5027734;28;1702;-71
2022/02/22 04:18:29;;;;;;;;;;;18.50;59.80;;;;;;5050860;28;1231;-72
2022/02/22 04:20:54;;;;;;;;;;;18.50;59.80;;;;;;5054265;28;1311;-71
2022/02/22 04:23:20;;;;;;;;;;;18.50;59.80;;;;;;5054262;28;1379;-71
2022/02/22 04:25:45;;;;;;;;;;;18.50;59.90;;;;;;5023000;28;1317;-71
2022/02/22 04:28:11;;;;;;;;;;;18.50;59.90;;;;;;5042513;28;1297;-71
2022/02/22 04:30:36;;;;;;;;;;;18.50;59.90;;;;;;5053921;28;1080;-71
2022/02/22 04:33:01;;;;;;;;;;;18.50;59.90;;;;;;5055195;28;1967;-70
2022/02/22 04:35:27;;;;;;;;;;;18.50;59.90;;;;;;5053170;28;1199;-71
2022/02/22 04:37:52;;;;;;;;;;;18.50;59.90;;;;;;5029587;28;1299;-71
2022/02/22 04:40:18;;;;;;;;;;;18.50;59.90;;;;;;5048289;28;1139;-70
2022/02/22 04:42:46;;;;;;;;;;;18.50;59.90;;;;;;5055136;28;1400;-71
2022/02/22 04:45:12;;;;;;;;;;;18.50;59.90;;;;;;5051063;28;1372;-70
2022/02/22 04:47:38;;;;;;;;;;;18.50;60.00;;;;;;5041981;28;1013;-70
2022/02/22 04:50:05;;;;;;;;;;;18.50;60.00;;;;;;5052566;28;1258;-70
2022/02/22 04:52:30;;;;;;;;;;;18.50;60.70;;;;;;5043393;28;1910;-70
2022/02/22 04:54:57;;;;;;;;;;;18.50;60.00;;;;;;5053722;28;1337;-70
2022/02/22 04:57:22;;;;;;;;;;;18.50;60.00;;;;;;5054945;28;1297;-71
2022/02/22 04:59:48;;;;;;;;;;;18.50;60.00;;;;;;5053374;28;1484;-71
2022/02/22 05:02:13;;;;;;;;;;;18.50;60.00;;;;;;5036325;28;1280;-71
2022/02/22 05:04:39;;;;;;;;;;;18.50;60.00;;;;;;5048862;28;1697;-70
2022/02/22 05:07:04;;;;;;;;;;;18.50;60.00;;;;;;5054933;28;1078;-70
2022/02/22 05:09:30;;;;;;;;;;;18.40;60.00;;;;;;5053394;28;1281;-70
2022/02/22 05:11:55;;;;;;;;;;;18.40;60.00;;;;;;5054762;28;1902;-70
2022/02/22 05:14:21;;;;;;;;;;;18.40;60.00;;;;;;5053673;28;1312;-71
2022/02/22 05:16:46;;;;;;;;;;;18.40;60.00;;;;;;5054709;28;1328;-71
2022/02/22 05:19:11;;;;;;;;;;;18.50;60.00;;;;;;5054009;28;1063;-70
2022/02/22 05:21:37;;;;;;;;;;;18.40;60.00;;;;;;5054603;28;1258;-71
2022/02/22 05:24:03;;;;;;;;;;;18.40;60.00;;;;;;5053349;28;1433;-71
2022/02/22 05:26:28;;;;;;;;;;;18.40;60.00;;;;;;5033283;28;1323;-71
2022/02/22 05:28:53;;;;;;;;;;;18.40;60.00;;;;;;5048694;28;1339;-71
2022/02/22 05:31:19;;;;;;;;;;;18.40;60.10;;;;;;5028850;28;1274;-71
2022/02/22 05:33:44;;;;;;;;;;;18.40;60.00;;;;;;5063511;28;1957;-73
2022/02/22 05:36:10;;;;;;;;;;;18.40;60.10;;;;;;5034259;28;1236;-74
2022/02/22 05:38:35;;;;;;;;;;;18.40;60.10;;;;;;5047953;28;1114;-72
2022/02/22 05:41:01;;;;;;;;;;;18.40;60.10;;;;;;5053102;28;1063;-72
2022/02/22 05:43:26;;;;;;;;;;;18.40;60.10;;;;;;5052985;28;1209;-71
2022/02/22 05:45:52;;;;;;;;;;;18.40;60.10;;;;;;5042258;28;1631;-71
2022/02/22 05:48:17;;;;;;;;;;;18.40;60.10;;;;;;5052203;28;1345;-70
2022/02/22 05:50:43;;;;;;;;;;;18.40;60.10;;;;;;5053835;28;1074;-71
2022/02/22 05:53:08;;;;;;;;;;;18.40;60.10;;;;;;5053627;28;1898;-70
2022/02/22 05:55:34;;;;;;;;;;;18.40;60.10;;;;;;5053785;28;1334;-70
2022/02/22 05:57:59;;;;;;;;;;;18.40;60.10;;;;;;5053452;28;1300;-70
2022/02/22 06:00:25;;;;;;;;;;;18.40;60.20;;;;;;5050085;28;1320;-69
2022/02/22 06:02:50;;;;;;;;;;;18.40;60.20;;;;;;5032460;28;1390;-70
2022/02/22 06:05:15;;;;;;;;;;;18.40;60.10;;;;;;5053852;28;1316;-69
2022/02/22 06:07:41;;;;;;;;;;;18.40;60.20;;;;;;5047426;28;2335;-73
2022/02/22 06:10:06;;;;;;;;;;;18.40;60.10;;;;;;5047324;28;1732;-71
2022/02/22 06:12:32;;;;;;;;;;;18.40;60.10;;;;;;5058293;28;1906;-70
2022/02/22 06:14:57;;;;;;;;;;;18.40;60.00;;;;;;5048668;28;1178;-71
2022/02/22 06:17:25;;;;;;;;;;;18.50;60.00;;;;;;5053080;28;1070;-71
2022/02/22 06:19:51;;;;;;;;;;;18.50;59.90;;;;;;5051639;28;1164;-68
2022/02/22 06:22:16;;;;;;;;;;;18.50;59.80;;;;;;5051489;28;1832;-68
2022/02/22 06:24:42;;;;;;;;;;;18.60;59.80;;;;;;5060041;28;1090;-68
2022/02/22 06:27:07;;;;;;;;;;;18.60;59.60;;;;;;5052053;28;1146;-67
2022/02/22 06:29:33;;;;;;;;;;;18.60;59.50;;;;;;5052869;28;1111;-67
2022/02/22 06:31:58;;;;;;;;;;;18.60;59.40;;;;;;5038685;28;1902;-69
2022/02/22 06:34:24;;;;;;;;;;;18.70;59.40;;;;;;5047315;28;1311;-69
2022/02/22 06:36:49;;;;;;;;;;;18.70;59.20;;;;;;5032197;28;1347;-69
2022/02/22 06:39:15;;;;;;;;;;;18.70;59.10;;;;;;5050714;28;1478;-69
2022/02/22 06:41:40;;;;;;;;;;;18.80;59.10;;;;;;5052862;28;1344;-69
2022/02/22 06:44:05;;;;;;;;;;;18.80;59.10;;;;;;5048451;28;1350;-69
2022/02/22 06:46:31;;;;;;;;;;;18.80;59.00;;;;;;5044471;28;1134;-70
2022/02/22 06:48:56;;;;;;;;;;;18.80;58.90;;;;;;5038673;28;1230;-69
2022/02/22 06:51:22;;;;;;;;;;;18.80;58.90;;;;;;5051555;28;1060;-70
2022/02/22 06:53:47;;;;;;;;;;;18.90;58.80;;;;;;5051384;28;1903;-70
2022/02/22 06:56:13;;;;;;;;;;;18.90;58.80;;;;;;5039361;28;1309;-70
2022/02/22 06:58:38;;;;;;;;;;;18.90;58.80;;;;;;5037700;28;1191;-70
2022/02/22 07:01:03;;;;;;;;;;;18.90;58.70;;;;;;5043723;28;1327;-70
2022/02/22 07:03:29;;;;;;;;;;;18.90;58.70;;;;;;5037718;28;1373;-70
2022/02/22 07:05:54;;;;;;;;;;;18.90;58.60;;;;;;5052752;28;1339;-70
2022/02/22 07:08:20;;;;;;;;;;;18.90;58.60;;;;;;5051415;28;1785;-70
2022/02/22 07:10:45;;;;;;;;;;;18.90;58.60;;;;;;5049809;28;1643;-70
2022/02/22 07:13:11;;;;;;;;;;;18.90;58.50;;;;;;5046914;28;2020;-70
2022/02/22 07:15:36;;;;;;;;;;;19.00;58.60;;;;;;5050873;28;1081;-70
2022/02/22 07:18:06;;;;;;;;;;;19.00;58.60;;;;;;5047864;28;1621;-71
2022/02/22 07:20:31;;;;;;;;;;;19.00;58.50;;;;;;5044911;28;2310;-70
2022/02/22 07:22:57;;;;;;;;;;;19.00;58.50;;;;;;5046038;28;1365;-69
2022/02/22 07:25:22;;;;;;;;;;;19.00;58.50;;;;;;5051267;28;1024;-69
2022/02/22 07:27:48;;;;;;;;;;;19.00;58.50;;;;;;5053941;28;1692;-69
2022/02/22 07:30:14;;;;;;;;;;;19.00;58.50;;;;;;5038761;28;1628;-68
2022/02/22 07:32:40;;;;;;;;;;;19.00;58.40;;;;;;5047991;28;1902;-67
2022/02/22 07:35:06;;;;;;;;;;;19.00;58.40;;;;;;5039892;28;1215;-67
2022/02/22 07:37:31;;;;;;;;;;;19.00;58.40;;;;;;5037380;28;1323;-68
2022/02/22 07:39:57;;;;;;;;;;;19.00;58.40;;;;;;5050918;28;1310;-69
2022/02/22 07:42:22;;;;;;;;;;;19.00;58.40;;;;;;5052079;28;1291;-67
2022/02/22 07:44:48;;;;;;;;;;;19.00;58.40;;;;;;5041007;28;1475;-67
2022/02/22 07:47:13;;;;;;;;;;;19.00;58.40;;;;;;5043019;28;1723;-66
2022/02/22 07:49:39;;;;;;;;;;;19.00;58.40;;;;;;5030726;28;1719;-65
2022/02/22 07:52:04;;;;;;;;;;;19.00;58.40;;;;;;5045539;28;1902;-65
2022/02/22 07:54:30;;;;;;;;;;;19.00;58.40;;;;;;5042696;28;1325;-65
2022/02/22 07:56:55;;;;;;;;;;;19.00;58.30;;;;;;5044189;28;1272;-70
2022/02/22 07:59:20;;;;;;;;;;;19.00;58.40;;;;;;5042912;28;1277;-71
2022/02/22 08:01:46;;;;;;;;;;;19.00;58.30;;;;;;5041109;28;1676;-70
2022/02/22 08:04:11;;;;;;;;;;;19.00;58.30;;;;;;5056337;22;3578;-68
2022/02/22 08:06:37;;;;;;;;;;;19.00;58.30;;;;;;5046367;28;1946;-68
2022/02/22 08:09:02;;;;;;;;;;;19.00;58.30;;;;;;5051795;28;1406;-68
2022/02/22 08:11:31;;;;;;;;;;;19.00;58.30;;;;;;5043895;28;1781;-67
2022/02/22 08:13:59;;;;;;;;;;;19.00;58.30;;;;;;5036083;28;1910;-69
2022/02/22 08:16:25;;;;;;;;;;;19.10;58.30;;;;;;5032237;28;1711;-68
2022/02/22 08:18:51;;;;;;;;;;;19.10;58.30;;;;;;5030601;28;1178;-68
2022/02/22 08:21:16;;;;;;;;;;;19.10;58.20;;;;;;5032689;28;1427;-68
2022/02/22 08:23:42;;;;;;;;;;;19.20;58.10;;;;;;5035481;28;1694;-69
2022/02/22 08:26:07;;;;;;;;;;;19.30;58.00;;;;;;5035500;28;1396;-69
2022/02/22 08:28:33;;;;;;;;;;;19.40;57.80;;;;;;5035093;28;1049;-68
2022/02/22 08:30:58;;;;;;;;;;;19.60;58.30;;;;;;5035347;28;1515;-68
2022/02/22 08:33:23;;;;;;;;;;;19.70;57.40;;;;;;5034230;28;1965;-68
2022/02/22 08:35:49;;;;;;;;;;;19.80;57.20;;;;;;5022999;28;1482;-70
2022/02/22 08:38:14;;;;;;;;;;;19.90;57.00;;;;;;5032252;28;1677;-68
2022/02/22 08:40:40;;;;;;;;;;;20.00;57.00;;;;;;5031609;28;1416;-70
2022/02/22 08:43:05;;;;;;;;;;;20.10;56.40;;;;;;5034119;28;1421;-69
2022/02/22 08:45:31;;;;;;;;;;;20.20;56.20;;;;;;5035336;28;1460;-70
2022/02/22 08:47:56;;;;;;;;;;;20.30;56.00;;;;;;5032449;28;1364;-72
2022/02/22 08:50:22;;;;;;;;;;;20.40;55.80;;;;;;5031573;28;1267;-70
2022/02/22 08:52:47;;;;;;;;;;;20.40;55.60;;;;;;5035305;28;1906;-70
2022/02/22 08:55:13;;;;;;;;;;;20.50;55.50;;;;;;5033907;28;1124;-69
2022/02/22 08:57:39;;;;;;;;;;;20.50;55.30;;;;;;5031244;28;1982;-70
2022/02/22 09:00:09;;;;;;;;;;;20.60;55.30;;;;;;5034036;28;1238;-68
2022/02/22 09:02:35;;;;;;;;;;;20.60;55.20;;;;;;5028151;28;2357;-72
2022/02/22 09:05:02;;;;;;;;;;;20.60;55.20;;;;;;5035026;28;1455;-71
2022/02/22 09:07:27;;;;;;;;;;;20.60;55.10;;;;;;5034344;28;1943;-71
2022/02/22 09:09:52;;;;;;;;;;;20.60;55.10;;;;;;5035680;28;1463;-70
2022/02/22 09:12:18;;;;;;;;;;;20.60;55.10;;;;;;5026878;28;2219;-69
2022/02/22 09:14:43;;;;;;;;;;;20.70;55.20;;;;;;5024779;28;1255;-72
2022/02/22 09:17:09;;;;;;;;;;;20.70;55.20;;;;;;5021472;28;1216;-71
2022/02/22 09:19:34;;;;;;;;;;;20.70;55.10;;;;;;5029166;28;1294;-72
2022/02/22 09:22:00;;;;;;;;;;;20.70;55.20;;;;;;5034708;28;1636;-71
2022/02/22 09:24:25;;;;;;;;;;;20.70;55.10;;;;;;5033015;28;1603;-72
2022/02/22 09:26:51;;;;;;;;;;;20.70;55.10;;;;;;5029212;28;1526;-73
2022/02/22 09:29:16;;;;;;;;;;;20.70;55.20;;;;;;5049620;28;1406;-72
2022/02/22 09:31:41;;;;;;;;;;;20.60;55.10;;;;;;5034386;28;1436;-71
2022/02/22 09:34:07;;;;;;;;;;;20.60;55.10;;;;;;5030682;28;1957;-72
2022/02/22 09:36:32;;;;;;;;;;;20.60;55.10;;;;;;5024888;28;1444;-72
2022/02/22 09:38:58;;;;;;;;;;;20.60;55.20;;;;;;5034069;28;1390;-72
2022/02/22 09:41:23;;;;;;;;;;;20.60;55.20;;;;;;5032675;28;1772;-71
2022/02/22 09:43:48;;;;;;;;;;;20.60;55.80;;;;;;5020175;28;1475;-72
2022/02/22 09:46:14;;;;;;;;;;;20.60;55.30;;;;;;5032501;28;1432;-72
2022/02/22 09:48:39;;;;;;;;;;;20.60;55.40;;;;;;5031044;28;1366;-72
2022/02/22 09:51:05;;;;;;;;;;;20.50;55.40;;;;;;5030927;28;1170;-72
2022/02/22 09:53:30;;;;;;;;;;;20.50;55.50;;;;;;5033402;28;2286;-72
2022/02/22 09:55:57;;;;;;;;;;;20.50;55.60;;;;;;5031858;28;1385;-72
2022/02/22 09:58:23;;;;;;;;;;;20.50;55.60;;;;;;5033531;28;1477;-72
2022/02/22 10:00:58;;;;;;;;;;;20.50;55.60;;;;;;5033286;28;1371;-72
2022/02/22 10:03:24;;;;;;;;;;;20.40;55.70;;;;;;5033706;28;1388;-72
2022/02/22 10:05:53;;;;;;;;;;;20.40;55.70;;;;;;5033397;28;1392;-72
2022/02/22 10:08:23;;;;;;;;;;;20.40;55.80;;;;;;5029237;28;1709;-72
2022/02/22 10:10:48;;;;;;;;;;;20.40;55.80;;;;;;5033504;28;1357;-72
2022/02/22 10:13:17;;;;;;;;;;;20.40;55.80;;;;;;5032211;28;1954;-72
2022/02/22 10:15:44;;;;;;;;;;;20.40;55.90;;;;;;5033489;28;1644;-72
2022/02/22 10:18:10;;;;;;;;;;;20.40;55.90;;;;;;5032374;28;1436;-72
2022/02/22 10:20:35;;;;;;;;;;;20.40;55.90;;;;;;5033131;28;1617;-71
2022/02/22 10:23:02;;;;;;;;;;;20.30;55.90;;;;;;5030642;28;1259;-71
2022/02/22 10:25:27;;;;;;;;;;;20.30;55.90;;;;;;5033278;28;1642;-72
2022/02/22 10:27:54;;;;;;;;;;;20.30;55.90;;;;;;5031691;28;1662;-72
2022/02/22 10:30:31;;;;;;;;;;;20.30;56.00;;;;;;5031708;28;1100;-72
2022/02/22 10:32:58;;;;;;;;;;;20.30;56.00;;;;;;5015764;28;1891;-72
2022/02/22 10:35:26;;;;;;;;;;;20.30;56.10;;;;;;5026234;28;1214;-72
2022/02/22 10:37:52;;;;;;;;;;;20.30;56.00;;;;;;5032834;28;1444;-71
2022/02/22 10:40:23;;;;;;;;;;;20.30;56.10;;;;;;5031434;28;1601;-72
2022/02/22 10:42:49;;;;;;;;;;;20.30;56.10;;;;;;5031483;28;1622;-72
2022/02/22 10:45:14;;;;;;;;;;;20.20;56.10;;;;;;5031846;28;1497;-71
2022/02/22 10:47:40;;;;;;;;;;;20.20;56.10;;;;;;5032852;28;1606;-72
2022/02/22 10:50:06;;;;;;;;;;;20.20;56.00;;;;;;5029684;28;1181;-72
2022/02/22 10:52:31;;;;;;;;;;;20.20;56.10;;;;;;5031185;28;1907;-72
2022/02/22 10:54:57;;;;;;;;;;;20.20;56.10;;;;;;5032632;28;1349;-72
2022/02/22 10:57:23;;;;;;;;;;;20.20;56.10;;;;;;5032610;28;1428;-71
2022/02/22 10:59:48;;;;;;;;;;;20.20;56.20;;;;;;5032231;28;1663;-72
2022/02/22 11:02:14;;;;;;;;;;;20.20;56.20;;;;;;5021521;28;1411;-72
2022/02/22 11:04:40;;;;;;;;;;;20.20;56.30;;;;;;5031419;28;1565;-72
2022/02/22 11:07:06;;;;;;;;;;;20.10;55.90;;;;;;5031264;28;1689;-72
2022/02/22 11:09:31;;;;;;;;;;;20.10;55.80;;;;;;5032339;28;1448;-71
2022/02/22 11:11:58;;;;;;;;;;;20.10;56.00;;;;;;5027160;28;1419;-71
2022/02/22 11:14:24;;;;;;;;;;;20.10;56.10;;;;;;5047729;28;1906;-71
2022/02/22 11:16:50;;;;;;;;;;;20.10;56.20;;;;;;5032450;28;1337;-71
2022/02/22 11:19:16;;;;;;;;;;;20.10;56.20;;;;;;5030738;28;1371;-71
2022/02/22 11:21:43;;;;;;;;;;;20.00;56.20;;;;;;5022612;28;1362;-72
2022/02/22 11:24:11;;;;;;;;;;;20.00;56.20;;;;;;5027961;28;1448;-72
2022/02/22 11:26:51;;;;;;;;;;;20.00;56.20;;;;;;5031433;28;1578;-71
2022/02/22 11:29:16;;;;;;;;;;;20.00;56.30;;;;;;5030318;28;1458;-71
2022/02/22 11:31:43;;;;;;;;;;;20.00;56.30;;;;;;5032287;28;1650;-72
2022/02/22 11:34:09;;;;;;;;;;;20.00;56.30;;;;;;5027629;28;1887;-72
2022/02/22 11:36:36;;;;;;;;;;;20.00;57.00;;;;;;5022101;28;1568;-71
2022/02/22 11:39:02;;;;;;;;;;;20.00;56.40;;;;;;5027911;28;2035;-71
2022/02/22 11:41:28;;;;;;;;;;;20.00;56.50;;;;;;5026231;28;1304;-72
2022/02/22 11:43:55;;;;;;;;;;;20.00;56.50;;;;;;5023697;28;1547;-72
2022/02/22 11:46:21;;;;;;;;;;;19.90;56.50;;;;;;5032169;28;1564;-71
2022/02/22 11:48:48;;;;;;;;;;;19.90;56.50;;;;;;5030341;28;1736;-72
2022/02/22 11:51:15;;;;;;;;;;;19.90;56.60;;;;;;5021742;28;1427;-72
2022/02/22 11:53:41;;;;;;;;;;;20.00;56.60;;;;;;5028429;28;1973;-71
2022/02/22 11:56:06;;;;;;;;;;;20.00;56.60;;;;;;5021188;28;1494;-71
2022/02/22 11:58:36;;;;;;;;;;;20.00;56.50;;;;;;5033103;28;1083;-71
2022/02/22 12:01:05;;;;;;;;;;;20.00;56.40;;;;;;5033780;28;1287;-71
2022/02/22 12:03:40;;;;;;;;;;;20.00;56.40;;;;;;5035627;28;1419;-71
2022/02/22 12:06:06;;;;;;;;;;;20.00;56.30;;;;;;5023426;28;980;-71
2022/02/22 12:08:38;;;;;;;;;;;20.00;56.30;;;;;;5035329;28;1371;-70
2022/02/22 12:11:05;;;;;;;;;;;20.10;56.30;;;;;;5021735;28;1151;-70
2022/02/22 12:13:43;;;;;;;;;;;20.10;56.20;;;;;;5028878;28;1968;-71
2022/02/22 12:16:20;;;;;;;;;;;20.10;56.20;;;;;;5031405;28;1538;-72
2022/02/22 12:18:46;;;;;;;;;;;20.10;56.20;;;;;;5035432;28;855;-71
2022/02/22 12:21:11;;;;;;;;;;;20.10;56.10;;;;;;5034569;28;1290;-71
2022/02/22 12:23:38;;;;;;;;;;;20.10;56.10;;;;;;5035389;28;1436;-71
2022/02/22 12:26:07;;;;;;;;;;;20.10;56.10;;;;;;5034180;28;929;-71
2022/02/22 12:28:41;;;;;;;;;;;20.10;56.10;;;;;;5033957;28;950;-73
2022/02/22 12:31:06;;;;;;;;;;;20.10;56.10;;;;;;5020731;28;1489;-72
2022/02/22 12:33:32;;;;;;;;;;;20.10;56.10;;;;;;5033924;28;1902;-71
2022/02/22 12:35:57;;;;;;;;;;;20.10;56.10;;;;;;5029288;28;1435;-71
2022/02/22 12:38:23;;;;;;;;;;;20.00;56.10;;;;;;5029980;28;1170;-72
2022/02/22 12:40:49;;;;;;;;;;;20.00;56.10;;;;;;5033853;28;1073;-73
2022/02/22 12:43:15;;;;;;;;;;;20.10;56.10;;;;;;5033976;28;1456;-71
2022/02/22 12:45:46;;;;;;;;;;;20.10;56.10;;;;;;5033965;28;1010;-71
2022/02/22 12:48:12;;;;;;;;;;;20.00;56.10;;;;;;5035005;28;871;-72
2022/02/22 12:50:37;;;;;;;;;;;20.00;56.10;;;;;;5034710;28;1530;-71
2022/02/22 12:53:03;;;;;;;;;;;20.00;56.10;;;;;;5033411;28;1954;-72
2022/02/22 12:55:28;;;;;;;;;;;20.00;56.20;;;;;;5033833;28;950;-73
2022/02/22 12:58:03;;;;;;;;;;;20.00;56.10;;;;;;5035137;28;812;-73
2022/02/22 13:00:29;;;;;;;;;;;20.00;56.10;;;;;;5021862;28;937;-73
2022/02/22 13:03:02;;;;;;;;;;;20.00;56.20;;;;;;5020104;28;1368;-73
2022/02/22 13:05:27;;;;;;;;;;;20.00;56.10;;;;;;5017560;28;1455;-73
2022/02/22 13:07:52;;;;;;;;;;;19.90;56.10;;;;;;5032485;28;791;-73
2022/02/22 13:10:20;;;;;;;;;;;19.90;56.20;;;;;;5049874;28;956;-74
2022/02/22 13:12:46;;;;;;;;;;;20.00;56.30;;;;;;5034688;28;1962;-73
2022/02/22 13:15:21;;;;;;;;;;;19.90;56.30;;;;;;5034014;28;734;-73
2022/02/22 13:17:46;;;;;;;;;;;19.90;56.30;;;;;;5033368;28;1001;-74
2022/02/22 13:20:12;;;;;;;;;;;19.90;56.30;;;;;;5031575;28;747;-73
2022/02/22 13:22:40;;;;;;;;;;;19.90;56.30;;;;;;5028873;28;1698;-73
2022/02/22 13:25:11;;;;;;;;;;;19.90;56.30;;;;;;5025811;28;1018;-73
2022/02/22 13:27:36;;;;;;;;;;;19.90;56.30;;;;;;5028301;28;1037;-73
2022/02/22 13:30:01;;;;;;;;;;;19.90;56.40;;;;;;5032488;28;1012;-73
2022/02/22 13:32:28;;;;;;;;;;;19.90;56.40;;;;;;5030934;28;1969;-73
2022/02/22 13:34:54;;;;;;;;;;;19.90;56.40;;;;;;5033013;28;811;-73
2022/02/22 13:37:32;;;;;;;;;;;19.90;56.40;;;;;;5033036;28;964;-73
2022/02/22 13:40:02;;;;;;;;;;;19.90;56.30;;;;;;5032597;28;1029;-73
2022/02/22 13:42:27;;;;;;;;;;;19.90;56.40;;;;;;5034157;28;1478;-74
2022/02/22 13:44:57;;;;;;;;;;;19.90;56.40;;;;;;5034145;28;858;-73
2022/02/22 13:47:26;;;;;;;;;;;19.80;57.00;;;;;;5032844;28;894;-72
2022/02/22 13:49:52;;;;;;;;;;;19.80;56.40;;;;;;5033813;28;915;-71
2022/02/22 13:52:17;;;;;;;;;;;19.80;56.50;;;;;;5033687;28;1898;-71
2022/02/22 13:54:46;;;;;;;;;;;19.80;56.50;;;;;;5027752;28;1361;-69
2022/02/22 13:57:14;;;;;;;;;;;19.80;56.50;;;;;;5019400;28;1368;-69
2022/02/22 13:59:40;;;;;;;;;;;19.80;56.50;;;;;;5033534;28;1289;-69
2022/02/22 14:02:06;;;;;;;;;;;19.80;56.60;;;;;;5033473;28;1401;-71
2022/02/22 14:04:34;;;;;;;;;;;19.80;56.60;;;;;;5038485;23;3779;-68
2022/02/22 14:07:04;;;;;;;;;;;19.80;56.60;;;;;;5020972;28;1554;-68
2022/02/22 14:09:29;;;;;;;;;;;19.80;56.60;;;;;;5048594;28;1375;-68
2022/02/22 14:11:55;;;;;;;;;;;19.70;56.60;;;;;;5032493;28;1605;-68
2022/02/22 14:14:20;;;;;;;;;;;19.70;56.60;;;;;;5033197;28;1972;-69
2022/02/22 14:16:46;;;;;;;;;;;19.70;56.60;;;;;;5032299;28;1338;-69
2022/02/22 14:19:11;;;;;;;;;;;19.70;56.60;;;;;;5031586;28;1623;-69
2022/02/22 14:21:37;;;;;;;;;;;19.70;56.60;;;;;;5032616;28;1235;-69
2022/02/22 14:24:05;;;;;;;;;;;19.70;56.70;;;;;;5023314;28;1387;-71